Time;durP1;ratioP1;P1;durP2;ratioP2;P2;SDS_P1;SDS_P2;PMS_P1;PMS_P2;Temp;Humidity;BMP_temperature;BMP_pressure;BME280_temperature;BME280_humidity;BME280_pressure;Samples;Min_cycle;Max_cycle;Signal;HPM_P1;HPM_P2
2021/12/03 00:01:12;;;;;;;;;;;;;;;;;;;;;
2021/12/03 00:07:45;;;;;;;;;;;;;;;;;;;;;
2021/12/03 00:14:34;;;;;;;;;;;;;;;;;;;;;
2021/12/03 00:18:11;;;;;;;;;;;;;;;;;;;;;
2021/12/03 00:24:28;;;;;;;;;;;;;;;19.85;39.55;99828.63;97905;1405;72739;-81
2021/12/03 00:27:43;;;;;;;;;;;;;;;19.85;39.55;99823.06;98377;1396;73360;-82
2021/12/03 00:30:49;;;;;;;;;;;;;;;19.86;39.59;99817.48;98770;1389;59844;-82
2021/12/03 00:34:08;;;;;;;;;;;;;;;;;;;;;
2021/12/03 00:37:30;;;;;;;;;;;;;;;19.86;39.57;99818.02;99177;1388;71683;-83
2021/12/03 00:41:22;;;;;;;;;;;;;;;19.86;39.64;99826.93;99124;1382;74805;-83
2021/12/03 00:44:24;;;;;;;;;;;;;;;19.86;39.58;99832.60;98747;1393;59666;-83
2021/12/03 00:47:41;;;;;;;;;;;;;;;;;;;;;
2021/12/03 00:50:48;;;;;;;;;;;;;;;;;;;;;
2021/12/03 01:00:43;;;;;;;;;;;;;;;;;;;;;
2021/12/03 01:03:33;;;;;;;;;;;;;;;19.89;39.55;99835.78;98742;1397;74196;-83
2021/12/03 01:10:50;;;;;;;;;;;;;;;19.90;39.49;99835.89;98655;1399;59757;-82
2021/12/03 01:14:03;;;;;;;;;;;;;;;;;;;;;
2021/12/03 01:17:38;;;;;;;;;;;;;;;19.91;39.53;99815.42;98503;1401;73173;-82
2021/12/03 01:20:30;;;;;;;;;;;;;;;;;;;;;
2021/12/03 01:23:47;;;;;;;;;;;;;;;;;;;;;
2021/12/03 01:26:49;;;;;;;;;;;;;;;;;;;;;
2021/12/03 01:33:24;;;;;;;;;;;;;;;19.92;39.44;99779.31;98858;1393;74735;-83
2021/12/03 01:36:53;;;;;;;;;;;;;;;19.92;39.49;99772.86;99282;1388;60336;-82
2021/12/03 01:39:44;;;;;;;;;;;;;;;;;;;;;
2021/12/03 01:43:00;;;;;;;;;;;;;;;;;;;;;
2021/12/03 01:46:16;;;;;;;;;;;;;;;;;;;;;
2021/12/03 01:49:28;;;;;;;;;;;;;;;;;;;;;
2021/12/03 01:52:36;;;;;;;;;;;;;;;;;;;;;
2021/12/03 01:56:13;;;;;;;;;;;;;;;;;;;;;
2021/12/03 01:59:18;;;;;;;;;;;;;;;;;;;;;
2021/12/03 02:02:24;;;;;;;;;;;;;;;19.95;39.46;99812.27;98745;1396;61707;-82
2021/12/03 02:05:51;;;;;;;;;;;;;;;19.96;39.44;99805.46;98518;1399;59900;-83
2021/12/03 02:08:57;;;;;;;;;;;;;;;19.95;39.40;99802.27;98482;1402;73772;-82
2021/12/03 02:12:28;;;;;;;;;;;;;;;19.96;39.42;99803.29;98466;1400;74858;-82
2021/12/03 02:15:42;;;;;;;;;;;;;;;19.96;39.39;99791.87;98633;1397;59647;-82
2021/12/03 02:29:03;;;;;;;;;;;;;;;;;;;;;
2021/12/03 02:31:59;;;;;;;;;;;;;;;;;;;;;
2021/12/03 02:35:09;;;;;;;;;;;;;;;19.97;39.25;99799.42;96701;1420;74038;-83
2021/12/03 02:38:34;;;;;;;;;;;;;;;;;;;;;
2021/12/03 02:41:45;;;;;;;;;;;;;;;19.98;39.31;99789.40;96921;1417;60498;-83
2021/12/03 02:45:11;;;;;;;;;;;;;;;19.98;39.25;99767.27;97198;1406;59641;-83
2021/12/03 02:48:42;;;;;;;;;;;;;;;19.98;39.23;99760.10;97283;1410;73371;-82
2021/12/03 02:51:35;;;;;;;;;;;;;;;;;;;;;
2021/12/03 02:55:12;;;;;;;;;;;;;;;;;;;;;
2021/12/03 02:58:54;;;;;;;;;;;;;;;19.99;39.33;99782.31;97859;1399;60629;-82
2021/12/03 03:01:45;;;;;;;;;;;;;;;;;;;;;
2021/12/03 03:11:53;;;;;;;;;;;;;;;;;;;;;
2021/12/03 03:14:58;;;;;;;;;;;;;;;;;;;;;
2021/12/03 03:21:58;;;;;;;;;;;;;;;20.03;39.22;99804.50;98789;1391;59790;-82
2021/12/03 03:24:59;;;;;;;;;;;;;;;;;;;;;
2021/12/03 03:28:17;;;;;;;;;;;;;;;;;;;;;
2021/12/03 03:35:02;;;;;;;;;;;;;;;;;;;;;
2021/12/03 03:38:05;;;;;;;;;;;;;;;;;;;;;
2021/12/03 03:41:12;;;;;;;;;;;;;;;20.03;39.22;99783.36;96931;1415;73986;-82
2021/12/03 03:44:30;;;;;;;;;;;;;;;20.05;39.19;99789.34;96927;1418;73647;-82
2021/12/03 03:47:39;;;;;;;;;;;;;;;;;;;;;
2021/12/03 03:50:47;;;;;;;;;;;;;;;20.05;39.19;99783.98;96746;1421;61734;-82
2021/12/03 03:53:44;;;;;;;;;;;;;;;;;;;;;
2021/12/03 03:57:03;;;;;;;;;;;;;;;;;;;;;
2021/12/03 04:03:56;;;;;;;;;;;;;;;20.05;39.05;99780.92;96791;1420;59801;-82
2021/12/03 04:06:56;;;;;;;;;;;;;;;;;;;;;
2021/12/03 04:10:15;;;;;;;;;;;;;;;20.05;38.95;99773.41;96932;1411;74385;-81
2021/12/03 04:14:05;;;;;;;;;;;;;;;20.06;39.07;99770.13;97440;1408;61496;-81
2021/12/03 04:23:54;;;;;;;;;;;;;;;20.06;38.98;99787.45;97424;1408;75502;-82
2021/12/03 04:27:09;;;;;;;;;;;;;;;;;;;;;
2021/12/03 04:30:16;;;;;;;;;;;;;;;20.07;38.95;99788.05;97732;1408;60613;-81
2021/12/03 04:33:52;;;;;;;;;;;;;;;;;;;;;
2021/12/03 04:40:36;;;;;;;;;;;;;;;;;;;;;
2021/12/03 04:43:30;;;;;;;;;;;;;;;20.09;38.88;99782.53;96935;1417;61448;-82
2021/12/03 04:46:26;;;;;;;;;;;;;;;;;;;;;
2021/12/03 04:49:24;;;;;;;;;;;;;;;;;;;;;
2021/12/03 04:52:33;;;;;;;;;;;;;;;20.09;38.96;99769.83;97005;1413;60527;-82
2021/12/03 04:55:39;;;;;;;;;;;;;;;20.10;38.94;99768.16;97273;1408;60801;-82
2021/12/03 04:59:05;;;;;;;;;;;;;;;20.10;38.89;99769.55;97508;1405;71582;-82
2021/12/03 05:06:15;;;;;;;;;;;;;;;20.12;38.89;99773.41;96914;1412;60524;-81
2021/12/03 05:08:41;;;;;;;;;;;;;;;;;;;;;
2021/12/03 05:11:51;;;;;;;;;;;;;;;;;;;;;
2021/12/03 05:15:07;;;;;;;;;;;;;;;20.13;38.64;99797.61;96637;1421;72910;-82
2021/12/03 05:18:58;;;;;;;;;;;;;;;20.12;38.50;99795.34;96892;1410;60702;-82
2021/12/03 05:21:49;;;;;;;;;;;;;;;;;;;;;
2021/12/03 05:28:53;;;;;;;;;;;;;;;;;;;;;
2021/12/03 05:31:51;;;;;;;;;;;;;;;20.01;38.16;99785.20;97054;1408;61287;-81
2021/12/03 05:34:55;;;;;;;;;;;;;;;;;;;;;
2021/12/03 05:38:09;;;;;;;;;;;;;;;;;;;;;
2021/12/03 05:44:13;;;;;;;;;;;;;;;19.87;37.60;99785.59;99000;1387;60450;-80
2021/12/03 05:47:04;;;;;;;;;;;;;;;19.84;37.61;99790.49;99151;1378;62149;-80
2021/12/03 05:50:24;;;;;;;;;;;;;;;19.80;37.53;99797.92;99800;1373;72768;-82
2021/12/03 05:53:45;;;;;;;;;;;;;;;19.76;37.38;99794.66;99516;1374;74258;-81
2021/12/03 05:56:25;;;;;;;;;;;;;;;19.73;37.30;99804.75;99982;1368;60619;-81
2021/12/03 05:58:53;;;;;;;;;;;;;;;19.69;37.15;99810.77;100160;1369;61534;-80
2021/12/03 06:01:19;;;;;;;;;;;;;;;19.67;37.22;99812.57;100167;1369;73969;-81
2021/12/03 06:03:55;;;;;;;;;;;;;;;19.65;37.04;99815.25;100210;1367;74155;-81
2021/12/03 06:06:21;;;;;;;;;;;;;;;19.62;36.93;99804.55;101466;1367;59294;-82
2021/12/03 06:08:47;;;;;;;;;;;;;;;19.60;36.92;99801.83;101975;1356;60367;-82
2021/12/03 06:11:13;;;;;;;;;;;;;;;19.60;37.01;99802.56;101873;1355;58509;-80
2021/12/03 06:13:41;;;;;;;;;;;;;;;19.60;36.91;99812.54;101375;1353;61355;-80
2021/12/03 06:16:46;;;;;;;;;;;;;;;19.62;36.85;99807.40;101357;1355;60672;-81
2021/12/03 06:19:29;;;;;;;;;;;;;;;19.66;36.75;99807.78;101353;1354;60448;-81
2021/12/03 06:22:41;;;;;;;;;;;;;;;;;;;;;
2021/12/03 06:25:25;;;;;;;;;;;;;;;19.76;36.89;99813.80;100724;1362;74117;-81
2021/12/03 06:28:16;;;;;;;;;;;;;;;;;;;;;
2021/12/03 06:30:48;;;;;;;;;;;;;;;19.84;36.82;99814.59;101793;1355;62193;-81
2021/12/03 06:33:29;;;;;;;;;;;;;;;19.87;36.93;99817.36;101333;1354;72721;-80
2021/12/03 06:35:55;;;;;;;;;;;;;;;19.92;36.95;99819.86;101361;1358;74384;-81
2021/12/03 06:38:29;;;;;;;;;;;;;;;19.95;36.91;99819.27;101197;1361;59823;-81
2021/12/03 06:41:15;;;;;;;;;;;;;;;19.97;36.92;99821.73;101219;1356;61595;-79
2021/12/03 06:43:48;;;;;;;;;;;;;;;20.01;37.02;99821.30;101244;1356;73808;-80
2021/12/03 06:46:45;;;;;;;;;;;;;;;20.04;37.10;99818.88;100747;1363;72929;-80
2021/12/03 06:49:32;;;;;;;;;;;;;;;20.06;37.13;99812.80;100857;1365;60362;-80
2021/12/03 06:52:28;;;;;;;;;;;;;;;20.08;37.12;99805.30;100758;1361;60723;-81
2021/12/03 06:55:04;;;;;;;;;;;;;;;20.09;37.27;99805.92;101203;1361;74035;-80
2021/12/03 06:57:33;;;;;;;;;;;;;;;20.09;37.08;99805.56;101898;1357;73051;-81
2021/12/03 06:59:58;;;;;;;;;;;;;;;20.05;37.19;99813.59;101930;1357;58822;-80
2021/12/03 07:02:23;;;;;;;;;;;;;;;19.98;37.07;99817.17;101698;1359;58793;-81
2021/12/03 07:04:49;;;;;;;;;;;;;;;19.90;37.01;99814.96;100909;1354;307262;-81
2021/12/03 07:07:15;;;;;;;;;;;;;;;19.83;37.09;99818.10;101084;1360;60546;-81
2021/12/03 07:09:57;;;;;;;;;;;;;;;19.76;37.00;99818.23;101141;1357;74191;-81
2021/12/03 07:13:01;;;;;;;;;;;;;;;;;;;;;
2021/12/03 07:15:27;;;;;;;;;;;;;;;19.69;36.91;99827.05;101132;1360;61710;-80
2021/12/03 07:18:03;;;;;;;;;;;;;;;19.68;36.71;99831.61;101206;1361;59542;-81
2021/12/03 07:20:29;;;;;;;;;;;;;;;19.67;36.63;99829.50;101180;1360;74078;-80
2021/12/03 07:22:55;;;;;;;;;;;;;;;19.68;36.64;99837.29;100989;1359;60734;-80
2021/12/03 07:25:44;;;;;;;;;;;;;;;19.69;36.48;99842.02;101474;1354;60342;-79
2021/12/03 07:28:18;;;;;;;;;;;;;;;19.70;36.53;99846.05;101512;1353;73786;-80
2021/12/03 07:30:44;;;;;;;;;;;;;;;19.71;36.56;99847.91;102381;1354;75139;-82
2021/12/03 07:33:31;;;;;;;;;;;;;;;19.73;36.61;99846.16;101957;1353;60640;-83
2021/12/03 07:36:14;;;;;;;;;;;;;;;19.74;36.30;99845.17;101778;1353;60727;-82
2021/12/03 07:39:32;;;;;;;;;;;;;;;19.74;36.33;99850.36;101771;1347;73993;-82
2021/12/03 07:42:17;;;;;;;;;;;;;;;19.74;36.36;99853.61;101756;1350;74786;-82
2021/12/03 07:48:26;;;;;;;;;;;;;;;19.69;36.09;99847.91;101621;1354;61859;-84
2021/12/03 07:51:20;;;;;;;;;;;;;;;19.67;36.15;99843.84;101618;1349;73453;-83
2021/12/03 07:53:47;;;;;;;;;;;;;;;19.64;35.96;99842.23;101769;1350;73838;-82
2021/12/03 07:56:16;;;;;;;;;;;;;;;19.61;35.83;99837.30;101659;1349;59029;-81
2021/12/03 07:58:45;;;;;;;;;;;;;;;19.56;35.88;99836.60;101788;1349;61722;-81
2021/12/03 08:01:22;;;;;;;;;;;;;;;19.47;35.97;99838.95;101644;1350;72681;-81
2021/12/03 08:03:51;;;;;;;;;;;;;;;19.38;36.01;99837.35;101642;1350;73880;-80
2021/12/03 08:06:28;;;;;;;;;;;;;;;19.35;36.11;99833.32;101400;1350;60468;-80
2021/12/03 08:09:25;;;;;;;;;;;;;;;19.36;36.23;99836.48;101297;1349;60780;-80
2021/12/03 08:12:29;;;;;;;;;;;;;;;19.37;36.32;99848.86;101491;1350;74013;-80
2021/12/03 08:15:08;;;;;;;;;;;;;;;19.40;36.38;99852.73;100986;1356;73997;-79
2021/12/03 08:17:35;;;;;;;;;;;;;;;19.43;36.31;99843.92;102121;1356;61193;-81
2021/12/03 08:20:00;;;;;;;;;;;;;;;19.47;36.31;99843.92;102224;1353;58790;-80
2021/12/03 08:22:29;;;;;;;;;;;;;;;19.53;36.38;99844.86;101311;1357;60905;-80
2021/12/03 08:25:35;;;;;;;;;;;;;;;19.58;36.44;99844.64;101021;1356;75433;-81
2021/12/03 08:28:14;;;;;;;;;;;;;;;;;;;;;
2021/12/03 08:31:16;;;;;;;;;;;;;;;19.69;36.37;99844.16;101364;1356;59657;-80
2021/12/03 08:33:51;;;;;;;;;;;;;;;;;;;;;
2021/12/03 08:36:41;;;;;;;;;;;;;;;19.79;36.63;99839.80;101278;1355;74345;-81
2021/12/03 08:39:14;;;;;;;;;;;;;;;19.83;36.51;99836.30;101360;1354;61437;-80
2021/12/03 08:42:03;;;;;;;;;;;;;;;19.86;36.49;99837.98;100911;1360;60408;-81
2021/12/03 08:44:38;;;;;;;;;;;;;;;19.90;36.47;99834.65;100842;1364;74082;-80
2021/12/03 08:47:07;;;;;;;;;;;;;;;19.91;36.41;99843.63;100887;1363;74637;-80
2021/12/03 08:54:49;;;;;;;;;;;;;;;19.98;36.47;99853.11;102144;1356;73036;-81
2021/12/03 08:57:16;;;;;;;;;;;;;;;19.96;36.40;99850.99;100942;1356;75264;-80
2021/12/03 08:59:48;;;;;;;;;;;;;;;19.86;36.39;99857.10;100805;1356;60122;-80
2021/12/03 09:02:35;;;;;;;;;;;;;;;19.79;36.29;99862.34;100922;1356;60837;-80
2021/12/03 09:05:09;;;;;;;;;;;;;;;19.66;36.31;99859.92;101098;1356;72708;-81
2021/12/03 09:07:35;;;;;;;;;;;;;;;19.58;36.63;99862.70;102165;1354;74012;-80
2021/12/03 09:10:01;;;;;;;;;;;;;;;19.55;36.72;99864.00;102016;1356;58650;-82
2021/12/03 09:12:26;;;;;;;;;;;;;;;19.55;36.73;99864.55;102028;1356;58757;-81
2021/12/03 09:14:58;;;;;;;;;;;;;;;19.60;36.82;99860.07;102137;1356;58524;-81
2021/12/03 09:20:38;;;;;;;;;;;;;;;19.70;36.82;99861.58;101562;1350;61270;-80
2021/12/03 09:26:39;;;;;;;;;;;;;;;19.83;36.98;99842.52;101489;1349;71906;-81
2021/12/03 09:29:28;;;;;;;;;;;;;;;19.87;36.94;99844.17;101874;1354;74873;-80
2021/12/03 09:32:21;;;;;;;;;;;;;;;19.91;36.98;99845.63;101718;1350;60481;-81
2021/12/03 09:34:53;;;;;;;;;;;;;;;19.96;36.82;99840.77;101658;1349;60468;-80
2021/12/03 09:37:39;;;;;;;;;;;;;;;20.00;36.91;99839.61;101683;1349;73783;-80
2021/12/03 09:40:19;;;;;;;;;;;;;;;;;;;;;
2021/12/03 09:43:11;;;;;;;;;;;;;;;20.05;36.67;99828.64;101694;1349;60460;-82
2021/12/03 09:46:39;;;;;;;;;;;;;;;20.05;36.68;99822.70;101627;1349;60552;-80
2021/12/03 09:54:44;;;;;;;;;;;;;;;20.01;36.84;99823.98;100599;1359;60488;-80
2021/12/03 09:57:18;;;;;;;;;;;;;;;20.02;37.17;99823.66;101022;1359;60696;-81
2021/12/03 10:02:38;;;;;;;;;;;;;;;19.98;36.78;99827.00;101082;1358;76279;-81
2021/12/03 10:09:24;;;;;;;;;;;;;;;19.98;36.94;99819.72;101078;1358;61528;-80
2021/12/03 10:16:34;;;;;;;;;;;;;;;20.03;36.97;99812.29;101179;1359;60557;-81
2021/12/03 10:19:05;;;;;;;;;;;;;;;20.03;36.94;99810.55;100939;1359;60580;-81
2021/12/03 10:26:35;;;;;;;;;;;;;;;20.04;36.78;99815.85;101002;1360;75552;-82
2021/12/03 10:35:36;;;;;;;;;;;;;;;20.03;36.59;99817.48;101087;1358;71511;-82
2021/12/03 10:41:37;;;;;;;;;;;;;;;20.01;36.74;99808.92;100528;1366;60370;-82
2021/12/03 10:47:41;;;;;;;;;;;;;;;20.02;36.68;99815.48;101140;1359;73906;-81
2021/12/03 10:50:49;;;;;;;;;;;;;;;20.01;36.58;99817.84;101163;1359;73950;-81
2021/12/03 11:11:11;;;;;;;;;;;;;;;19.60;36.52;99808.62;101923;1356;60699;-80
2021/12/03 12:03:14;;;;;;;;;;;;;;;;;;;;;
2021/12/03 12:06:54;;;;;;;;;;;;;;;19.24;36.16;99811.48;101920;1359;74743;-80
2021/12/03 12:17:14;;;;;;;;;;;;;;;19.24;36.19;99828.77;101268;1361;75207;-80
2021/12/03 13:00:18;;;;;;;;;;;;;;;19.31;36.15;99852.72;98735;1384;61051;-81
2021/12/03 13:12:56;;;;;;;;;;;;;;;19.40;36.64;99870.35;99046;1385;60520;-81
2021/12/03 13:35:04;;;;;;;;;;;;;;;19.57;36.92;99919.90;100474;1366;73474;-80
2021/12/03 14:37:18;;;;;;;;;;;;;;;19.66;36.15;99951.30;99910;1372;71606;-81
2021/12/03 14:44:02;;;;;;;;;;;;;;;;;;;;;
2021/12/03 14:57:28;;;;;;;;;;;;;;;19.78;36.20;99964.52;98730;1388;61276;-81
2021/12/03 15:01:10;;;;;;;;;;;;;;;19.80;36.27;99964.38;98668;1391;60695;-80
2021/12/03 15:03:37;;;;;;;;;;;;;;;;;;;;;
2021/12/03 15:07:30;;;;;;;;;;;;;;;19.82;36.23;99966.14;98661;1384;73177;-81
2021/12/03 15:10:13;;;;;;;;;;;;;;;;;;;;;
2021/12/03 15:25:56;;;;;;;;;;;;;;;19.91;36.41;100004.20;99832;1374;61741;-81
2021/12/03 15:35:56;;;;;;;;;;;;;;;19.95;36.53;100024.66;100473;1366;61086;-81
2021/12/03 15:55:45;;;;;;;;;;;;;;;;;;;;;
2021/12/03 15:58:44;;;;;;;;;;;;;;;;;;;;;
2021/12/03 16:11:59;;;;;;;;;;;;;;;;;;;;;
2021/12/03 16:25:30;;;;;;;;;;;;;;;20.01;37.36;100104.89;99121;1383;74365;-82
2021/12/03 16:55:27;;;;;;;;;;;;;;;;;;;;;
2021/12/03 16:58:18;;;;;;;;;;;;;;;20.06;37.97;100169.54;100800;1367;60521;-84
2021/12/03 17:09:06;;;;;;;;;;;;;;;20.07;38.04;100189.27;99539;1378;60444;-83
2021/12/03 17:26:12;;;;;;;;;;;;;;;20.08;38.31;100208.45;99134;1385;61440;-82
2021/12/03 18:51:48;;;;;;;;;;;;;;;20.14;39.21;100387.59;98604;1392;71670;-82
2021/12/03 18:57:17;;;;;;;;;;;;;;;;;;;;;
2021/12/03 19:00:53;;;;;;;;;;;;;;;;;;;;;
2021/12/03 19:07:47;;;;;;;;;;;;;;;20.14;39.35;100443.65;98009;1406;73093;-82
2021/12/03 19:10:40;;;;;;;;;;;;;;;;;;;;;
2021/12/03 19:17:05;;;;;;;;;;;;;;;;;;;;;
2021/12/03 19:20:58;;;;;;;;;;;;;;;20.15;39.41;100473.27;97316;1405;72743;-82
2021/12/03 19:23:41;;;;;;;;;;;;;;;20.15;39.40;100478.25;97456;1409;60664;-83
2021/12/03 19:27:00;;;;;;;;;;;;;;;;;;;;;
2021/12/03 19:30:54;;;;;;;;;;;;;;;20.15;39.33;100502.91;97575;1409;71659;-83
2021/12/03 19:37:32;;;;;;;;;;;;;;;20.16;39.48;100515.21;97373;1405;60435;-82
2021/12/03 19:53:59;;;;;;;;;;;;;;;20.15;39.40;100572.62;97255;1410;62465;-83
2021/12/03 19:57:22;;;;;;;;;;;;;;;;;;;;;
2021/12/03 20:03:43;;;;;;;;;;;;;;;;;;;;;
2021/12/03 20:06:59;;;;;;;;;;;;;;;;;;;;;
2021/12/03 20:10:48;;;;;;;;;;;;;;;;;;;;;
2021/12/03 20:13:59;;;;;;;;;;;;;;;20.14;39.41;100595.39;97155;1411;75472;-83
2021/12/03 20:21:18;;;;;;;;;;;;;;;20.14;39.34;100634.71;97504;1410;60480;-83
2021/12/03 20:24:13;;;;;;;;;;;;;;;;;;;;;
2021/12/03 20:27:28;;;;;;;;;;;;;;;;;;;;;
2021/12/03 20:41:24;;;;;;;;;;;;;;;20.12;39.32;100647.48;98462;1392;71712;-82
2021/12/03 20:48:14;;;;;;;;;;;;;;;20.12;39.29;100653.93;99113;1389;62032;-83
2021/12/03 21:22:36;;;;;;;;;;;;;;;20.13;39.12;100659.62;99643;1382;74158;-84
2021/12/03 21:25:46;;;;;;;;;;;;;;;;;;;;;
2021/12/03 21:32:47;;;;;;;;;;;;;;;20.12;39.12;100678.75;99407;1381;74428;-82
2021/12/03 21:42:28;;;;;;;;;;;;;;;20.12;39.05;100676.61;99269;1384;60555;-83
2021/12/03 21:49:04;;;;;;;;;;;;;;;20.12;39.06;100682.87;99031;1390;74643;-84
2021/12/03 21:52:32;;;;;;;;;;;;;;;20.12;39.09;100690.36;99043;1392;60546;-82
2021/12/03 21:55:13;;;;;;;;;;;;;;;20.12;39.06;100692.38;98644;1396;62203;-82
2021/12/03 21:58:39;;;;;;;;;;;;;;;;;;;;;
2021/12/03 22:05:04;;;;;;;;;;;;;;;;;;;;;
2021/12/03 22:08:42;;;;;;;;;;;;;;;;;;;;;
2021/12/03 22:14:59;;;;;;;;;;;;;;;;;;;;;
2021/12/03 22:18:24;;;;;;;;;;;;;;;;;;;;;
2021/12/03 22:21:51;;;;;;;;;;;;;;;20.12;38.99;100701.48;98937;1386;60480;-82
2021/12/03 22:28:12;;;;;;;;;;;;;;;;;;;;;
2021/12/03 22:35:19;;;;;;;;;;;;;;;20.12;38.96;100686.98;99357;1383;60817;-82
2021/12/03 22:38:45;;;;;;;;;;;;;;;20.12;38.97;100679.29;99253;1387;71606;-83
2021/12/03 22:41:37;;;;;;;;;;;;;;;;;;;;;
2021/12/03 22:45:16;;;;;;;;;;;;;;;20.12;38.95;100683.92;98833;1390;60625;-82
2021/12/03 22:51:29;;;;;;;;;;;;;;;;;;;;;
2021/12/03 22:58:16;;;;;;;;;;;;;;;;;;;;;
2021/12/03 23:01:27;;;;;;;;;;;;;;;20.12;38.91;100689.81;98472;1399;61969;-82
2021/12/03 23:04:59;;;;;;;;;;;;;;;20.13;38.82;100684.79;94876;1399;5365317;-82
2021/12/03 23:07:59;;;;;;;;;;;;;;;;;;;;;
2021/12/03 23:15:16;;;;;;;;;;;;;;;20.13;38.78;100672.64;98660;1396;60734;-83
2021/12/03 23:18:24;;;;;;;;;;;;;;;20.13;38.83;100667.98;98843;1383;60549;-82
2021/12/03 23:21:50;;;;;;;;;;;;;;;20.13;38.87;100671.17;99284;1383;71418;-82
2021/12/03 23:25:02;;;;;;;;;;;;;;;;;;;;;
2021/12/03 23:31:12;;;;;;;;;;;;;;;20.13;38.87;100689.37;100235;1376;60467;-82
2021/12/03 23:35:04;;;;;;;;;;;;;;;20.13;38.80;100692.25;100221;1375;71513;-82
2021/12/03 23:41:56;;;;;;;;;;;;;;;20.14;38.72;100690.62;99679;1373;61491;-81
2021/12/03 23:48:49;;;;;;;;;;;;;;;20.14;38.79;100697.22;99638;1382;71706;-82
2021/12/03 23:51:53;;;;;;;;;;;;;;;;;;;;;
2021/12/03 23:55:01;;;;;;;;;;;;;;;;;;;;;
2021/12/03 23:58:27;;;;;;;;;;;;;;;;;;;;;
